sensor_id;sensor_type;location;lat;lon;timestamp;P1;durP1;ratioP1;P2;durP2;ratioP2
2452;SDS011;63678;47.994;7.854;2023-11-19T00:00:40;3.40;;;1.48;;
2452;SDS011;63678;47.994;7.854;2023-11-19T00:03:24;3.20;;;1.40;;
2452;SDS011;63678;47.994;7.854;2023-11-19T00:05:56;4.13;;;1.58;;
2452;SDS011;63678;47.994;7.854;2023-11-19T00:08:28;4.40;;;1.67;;
2452;SDS011;63678;47.994;7.854;2023-11-19T00:11:01;4.97;;;1.40;;
2452;SDS011;63678;47.994;7.854;2023-11-19T00:13:34;3.58;;;1.70;;
2452;SDS011;63678;47.994;7.854;2023-11-19T00:16:07;3.72;;;1.50;;
2452;SDS011;63678;47.994;7.854;2023-11-19T00:18:41;5.53;;;1.67;;
2452;SDS011;63678;47.994;7.854;2023-11-19T00:21:14;4.07;;;1.40;;
2452;SDS011;63678;47.994;7.854;2023-11-19T00:23:46;4.07;;;1.55;;
2452;SDS011;63678;47.994;7.854;2023-11-19T00:26:19;4.20;;;1.60;;
2452;SDS011;63678;47.994;7.854;2023-11-19T00:28:56;3.83;;;1.30;;
2452;SDS011;63678;47.994;7.854;2023-11-19T00:31:29;3.53;;;1.33;;
2452;SDS011;63678;47.994;7.854;2023-11-19T00:34:02;3.77;;;1.30;;
2452;SDS011;63678;47.994;7.854;2023-11-19T00:36:34;3.33;;;1.40;;
2452;SDS011;63678;47.994;7.854;2023-11-19T00:39:07;3.50;;;1.35;;
2452;SDS011;63678;47.994;7.854;2023-11-19T00:41:40;3.63;;;1.50;;
2452;SDS011;63678;47.994;7.854;2023-11-19T00:44:12;4.20;;;1.40;;
2452;SDS011;63678;47.994;7.854;2023-11-19T00:46:45;4.27;;;1.37;;
2452;SDS011;63678;47.994;7.854;2023-11-19T00:49:17;4.43;;;1.50;;
2452;SDS011;63678;47.994;7.854;2023-11-19T00:51:50;3.10;;;1.20;;
2452;SDS011;63678;47.994;7.854;2023-11-19T00:54:22;3.42;;;1.20;;
2452;SDS011;63678;47.994;7.854;2023-11-19T00:56:57;5.68;;;1.45;;
2452;SDS011;63678;47.994;7.854;2023-11-19T00:59:29;3.20;;;1.20;;
2452;SDS011;63678;47.994;7.854;2023-11-19T01:02:01;4.75;;;1.40;;
2452;SDS011;63678;47.994;7.854;2023-11-19T01:04:35;4.85;;;1.13;;
2452;SDS011;63678;47.994;7.854;2023-11-19T01:07:08;5.38;;;1.45;;
2452;SDS011;63678;47.994;7.854;2023-11-19T01:09:45;4.00;;;1.45;;
2452;SDS011;63678;47.994;7.854;2023-11-19T01:12:17;3.33;;;1.33;;
2452;SDS011;63678;47.994;7.854;2023-11-19T01:14:50;3.00;;;1.27;;
2452;SDS011;63678;47.994;7.854;2023-11-19T01:17:22;5.28;;;1.55;;
2452;SDS011;63678;47.994;7.854;2023-11-19T01:19:54;3.78;;;1.40;;
2452;SDS011;63678;47.994;7.854;2023-11-19T01:22:27;3.28;;;1.45;;
2452;SDS011;63678;47.994;7.854;2023-11-19T01:24:59;3.80;;;1.40;;
2452;SDS011;63678;47.994;7.854;2023-11-19T01:27:32;3.10;;;1.20;;
2452;SDS011;63678;47.994;7.854;2023-11-19T01:30:08;3.20;;;1.40;;
2452;SDS011;63678;47.994;7.854;2023-11-19T01:32:44;3.30;;;1.42;;
2452;SDS011;63678;47.994;7.854;2023-11-19T01:35:17;7.13;;;1.50;;
2452;SDS011;63678;47.994;7.854;2023-11-19T01:37:50;3.70;;;1.23;;
2452;SDS011;63678;47.994;7.854;2023-11-19T01:40:23;4.68;;;1.30;;
2452;SDS011;63678;47.994;7.854;2023-11-19T01:42:55;3.80;;;1.60;;
2452;SDS011;63678;47.994;7.854;2023-11-19T01:45:28;3.83;;;1.40;;
2452;SDS011;63678;47.994;7.854;2023-11-19T01:48:02;4.65;;;1.50;;
2452;SDS011;63678;47.994;7.854;2023-11-19T01:50:35;3.17;;;1.20;;
2452;SDS011;63678;47.994;7.854;2023-11-19T01:53:08;3.53;;;1.30;;
2452;SDS011;63678;47.994;7.854;2023-11-19T01:55:40;4.20;;;2.03;;
2452;SDS011;63678;47.994;7.854;2023-11-19T01:58:13;3.28;;;1.30;;
2452;SDS011;63678;47.994;7.854;2023-11-19T02:00:46;4.50;;;1.40;;
2452;SDS011;63678;47.994;7.854;2023-11-19T02:03:19;6.57;;;1.80;;
2452;SDS011;63678;47.994;7.854;2023-11-19T02:05:53;3.72;;;1.60;;
2452;SDS011;63678;47.994;7.854;2023-11-19T02:08:25;5.63;;;2.30;;
2452;SDS011;63678;47.994;7.854;2023-11-19T02:10:58;4.57;;;1.70;;
2452;SDS011;63678;47.994;7.854;2023-11-19T02:13:31;4.07;;;1.70;;
2452;SDS011;63678;47.994;7.854;2023-11-19T02:16:04;4.23;;;1.93;;
2452;SDS011;63678;47.994;7.854;2023-11-19T02:18:38;5.28;;;1.70;;
2452;SDS011;63678;47.994;7.854;2023-11-19T02:21:11;4.30;;;1.77;;
2452;SDS011;63678;47.994;7.854;2023-11-19T02:23:43;5.00;;;1.90;;
2452;SDS011;63678;47.994;7.854;2023-11-19T02:26:18;3.60;;;1.70;;
2452;SDS011;63678;47.994;7.854;2023-11-19T02:29:00;3.90;;;1.67;;
2452;SDS011;63678;47.994;7.854;2023-11-19T02:31:35;3.97;;;1.90;;
2452;SDS011;63678;47.994;7.854;2023-11-19T02:34:10;5.20;;;2.00;;
2452;SDS011;63678;47.994;7.854;2023-11-19T02:36:44;4.28;;;2.10;;
2452;SDS011;63678;47.994;7.854;2023-11-19T02:39:18;4.40;;;2.10;;
2452;SDS011;63678;47.994;7.854;2023-11-19T02:41:53;3.83;;;1.80;;
2452;SDS011;63678;47.994;7.854;2023-11-19T02:44:26;3.72;;;1.80;;
2452;SDS011;63678;47.994;7.854;2023-11-19T02:47:02;5.80;;;2.00;;
2452;SDS011;63678;47.994;7.854;2023-11-19T02:49:37;4.20;;;1.73;;
2452;SDS011;63678;47.994;7.854;2023-11-19T02:52:09;5.05;;;2.10;;
2452;SDS011;63678;47.994;7.854;2023-11-19T02:54:43;4.77;;;1.90;;
2452;SDS011;63678;47.994;7.854;2023-11-19T02:57:16;3.55;;;1.70;;
2452;SDS011;63678;47.994;7.854;2023-11-19T02:59:54;6.70;;;2.13;;
2452;SDS011;63678;47.994;7.854;2023-11-19T03:02:27;3.85;;;1.75;;
2452;SDS011;63678;47.994;7.854;2023-11-19T03:05:06;4.20;;;1.80;;
2452;SDS011;63678;47.994;7.854;2023-11-19T03:07:40;5.03;;;2.10;;
2452;SDS011;63678;47.994;7.854;2023-11-19T03:10:15;4.72;;;2.08;;
2452;SDS011;63678;47.994;7.854;2023-11-19T03:12:47;4.65;;;2.15;;
2452;SDS011;63678;47.994;7.854;2023-11-19T03:15:19;5.15;;;1.90;;
2452;SDS011;63678;47.994;7.854;2023-11-19T03:17:52;5.35;;;2.10;;
2452;SDS011;63678;47.994;7.854;2023-11-19T03:20:25;3.77;;;1.80;;
2452;SDS011;63678;47.994;7.854;2023-11-19T03:22:59;3.92;;;1.90;;
2452;SDS011;63678;47.994;7.854;2023-11-19T03:25:34;6.32;;;1.98;;
2452;SDS011;63678;47.994;7.854;2023-11-19T03:28:07;3.58;;;1.70;;
2452;SDS011;63678;47.994;7.854;2023-11-19T03:30:40;6.32;;;2.28;;
2452;SDS011;63678;47.994;7.854;2023-11-19T03:33:12;6.47;;;1.73;;
2452;SDS011;63678;47.994;7.854;2023-11-19T03:35:45;4.03;;;2.00;;
2452;SDS011;63678;47.994;7.854;2023-11-19T03:38:18;5.50;;;1.80;;
2452;SDS011;63678;47.994;7.854;2023-11-19T03:40:50;4.88;;;1.70;;
2452;SDS011;63678;47.994;7.854;2023-11-19T03:43:23;5.57;;;1.75;;
2452;SDS011;63678;47.994;7.854;2023-11-19T03:45:55;4.20;;;1.33;;
2452;SDS011;63678;47.994;7.854;2023-11-19T03:48:27;4.38;;;1.50;;
2452;SDS011;63678;47.994;7.854;2023-11-19T03:51:00;3.50;;;1.70;;
2452;SDS011;63678;47.994;7.854;2023-11-19T03:53:33;4.90;;;1.45;;
2452;SDS011;63678;47.994;7.854;2023-11-19T03:56:05;4.50;;;1.80;;
2452;SDS011;63678;47.994;7.854;2023-11-19T03:58:38;3.27;;;1.40;;
2452;SDS011;63678;47.994;7.854;2023-11-19T04:01:11;3.22;;;1.40;;
2452;SDS011;63678;47.994;7.854;2023-11-19T04:03:45;4.07;;;1.55;;
2452;SDS011;63678;47.994;7.854;2023-11-19T04:06:20;4.07;;;1.67;;
2452;SDS011;63678;47.994;7.854;2023-11-19T04:08:53;3.20;;;1.45;;
2452;SDS011;63678;47.994;7.854;2023-11-19T04:11:25;3.30;;;1.63;;
2452;SDS011;63678;47.994;7.854;2023-11-19T04:13:58;3.22;;;1.35;;
2452;SDS011;63678;47.994;7.854;2023-11-19T04:16:30;3.88;;;1.73;;
2452;SDS011;63678;47.994;7.854;2023-11-19T04:19:03;3.00;;;1.30;;
2452;SDS011;63678;47.994;7.854;2023-11-19T04:21:35;3.15;;;1.33;;
2452;SDS011;63678;47.994;7.854;2023-11-19T04:24:10;3.10;;;1.50;;
2452;SDS011;63678;47.994;7.854;2023-11-19T04:26:44;3.00;;;1.33;;
2452;SDS011;63678;47.994;7.854;2023-11-19T04:29:17;3.45;;;1.73;;
2452;SDS011;63678;47.994;7.854;2023-11-19T04:31:51;3.30;;;1.13;;
2452;SDS011;63678;47.994;7.854;2023-11-19T04:34:23;2.90;;;1.30;;
2452;SDS011;63678;47.994;7.854;2023-11-19T04:36:56;2.60;;;1.03;;
2452;SDS011;63678;47.994;7.854;2023-11-19T04:39:28;3.53;;;1.17;;
2452;SDS011;63678;47.994;7.854;2023-11-19T04:42:01;2.88;;;1.10;;
2452;SDS011;63678;47.994;7.854;2023-11-19T04:44:33;2.67;;;1.00;;
2452;SDS011;63678;47.994;7.854;2023-11-19T04:47:05;2.75;;;1.20;;
2452;SDS011;63678;47.994;7.854;2023-11-19T04:49:41;2.80;;;1.00;;
2452;SDS011;63678;47.994;7.854;2023-11-19T04:52:14;3.90;;;1.25;;
2452;SDS011;63678;47.994;7.854;2023-11-19T04:54:47;3.00;;;1.38;;
2452;SDS011;63678;47.994;7.854;2023-11-19T04:57:19;2.70;;;1.08;;
2452;SDS011;63678;47.994;7.854;2023-11-19T04:59:52;2.60;;;1.00;;
2452;SDS011;63678;47.994;7.854;2023-11-19T05:02:24;2.60;;;0.83;;
2452;SDS011;63678;47.994;7.854;2023-11-19T05:04:57;2.90;;;1.13;;
2452;SDS011;63678;47.994;7.854;2023-11-19T05:07:29;2.70;;;1.10;;
2452;SDS011;63678;47.994;7.854;2023-11-19T05:10:02;2.70;;;1.00;;
2452;SDS011;63678;47.994;7.854;2023-11-19T05:12:36;3.83;;;1.15;;
2452;SDS011;63678;47.994;7.854;2023-11-19T05:15:08;2.60;;;0.90;;
2452;SDS011;63678;47.994;7.854;2023-11-19T05:17:43;2.65;;;0.93;;
2452;SDS011;63678;47.994;7.854;2023-11-19T05:20:16;2.58;;;1.10;;
2452;SDS011;63678;47.994;7.854;2023-11-19T05:22:49;3.25;;;1.13;;
2452;SDS011;63678;47.994;7.854;2023-11-19T05:25:22;3.25;;;1.05;;
2452;SDS011;63678;47.994;7.854;2023-11-19T05:27:56;2.60;;;1.00;;
2452;SDS011;63678;47.994;7.854;2023-11-19T05:30:29;3.08;;;1.00;;
2452;SDS011;63678;47.994;7.854;2023-11-19T05:33:01;2.70;;;1.08;;
2452;SDS011;63678;47.994;7.854;2023-11-19T05:35:34;3.80;;;1.15;;
2452;SDS011;63678;47.994;7.854;2023-11-19T05:38:07;3.30;;;1.50;;
2452;SDS011;63678;47.994;7.854;2023-11-19T05:40:41;3.00;;;1.10;;
2452;SDS011;63678;47.994;7.854;2023-11-19T05:43:15;3.20;;;1.10;;
2452;SDS011;63678;47.994;7.854;2023-11-19T05:45:48;2.70;;;1.08;;
2452;SDS011;63678;47.994;7.854;2023-11-19T05:48:20;2.90;;;0.98;;
2452;SDS011;63678;47.994;7.854;2023-11-19T05:50:53;3.40;;;1.20;;
2452;SDS011;63678;47.994;7.854;2023-11-19T05:53:26;2.87;;;1.00;;
2452;SDS011;63678;47.994;7.854;2023-11-19T05:55:58;2.65;;;1.00;;
2452;SDS011;63678;47.994;7.854;2023-11-19T05:58:35;5.72;;;1.20;;
2452;SDS011;63678;47.994;7.854;2023-11-19T06:01:07;2.70;;;1.05;;
2452;SDS011;63678;47.994;7.854;2023-11-19T06:03:40;2.80;;;1.13;;
2452;SDS011;63678;47.994;7.854;2023-11-19T06:06:14;3.10;;;1.13;;
2452;SDS011;63678;47.994;7.854;2023-11-19T06:08:47;3.00;;;1.10;;
2452;SDS011;63678;47.994;7.854;2023-11-19T06:11:19;2.80;;;1.20;;
2452;SDS011;63678;47.994;7.854;2023-11-19T06:13:52;2.80;;;0.93;;
2452;SDS011;63678;47.994;7.854;2023-11-19T06:16:24;3.05;;;1.17;;
2452;SDS011;63678;47.994;7.854;2023-11-19T06:18:57;2.80;;;1.13;;
2452;SDS011;63678;47.994;7.854;2023-11-19T06:21:29;3.25;;;1.00;;
2452;SDS011;63678;47.994;7.854;2023-11-19T06:24:02;2.90;;;1.27;;
2452;SDS011;63678;47.994;7.854;2023-11-19T06:26:35;2.75;;;1.00;;
2452;SDS011;63678;47.994;7.854;2023-11-19T06:29:07;3.42;;;1.20;;
2452;SDS011;63678;47.994;7.854;2023-11-19T06:31:40;2.90;;;1.30;;
2452;SDS011;63678;47.994;7.854;2023-11-19T06:34:12;2.70;;;1.00;;
2452;SDS011;63678;47.994;7.854;2023-11-19T06:36:45;2.70;;;1.08;;
2452;SDS011;63678;47.994;7.854;2023-11-19T06:39:17;3.85;;;1.00;;
2452;SDS011;63678;47.994;7.854;2023-11-19T06:41:51;2.80;;;1.20;;
2452;SDS011;63678;47.994;7.854;2023-11-19T06:44:23;2.87;;;1.27;;
2452;SDS011;63678;47.994;7.854;2023-11-19T06:46:56;3.55;;;1.20;;
2452;SDS011;63678;47.994;7.854;2023-11-19T06:49:29;3.65;;;1.25;;
2452;SDS011;63678;47.994;7.854;2023-11-19T06:52:01;3.05;;;1.20;;
2452;SDS011;63678;47.994;7.854;2023-11-19T06:54:34;3.08;;;1.42;;
2452;SDS011;63678;47.994;7.854;2023-11-19T06:57:06;2.70;;;1.00;;
2452;SDS011;63678;47.994;7.854;2023-11-19T06:59:39;2.92;;;1.20;;
2452;SDS011;63678;47.994;7.854;2023-11-19T07:02:11;3.38;;;1.50;;
2452;SDS011;63678;47.994;7.854;2023-11-19T07:04:44;3.45;;;1.50;;
2452;SDS011;63678;47.994;7.854;2023-11-19T07:07:16;4.13;;;1.48;;
2452;SDS011;63678;47.994;7.854;2023-11-19T07:09:49;4.13;;;1.50;;
2452;SDS011;63678;47.994;7.854;2023-11-19T07:12:21;3.55;;;1.60;;
2452;SDS011;63678;47.994;7.854;2023-11-19T07:14:53;3.03;;;1.50;;
2452;SDS011;63678;47.994;7.854;2023-11-19T07:17:26;3.35;;;1.42;;
2452;SDS011;63678;47.994;7.854;2023-11-19T07:19:59;3.35;;;1.20;;
2452;SDS011;63678;47.994;7.854;2023-11-19T07:22:31;3.57;;;1.10;;
2452;SDS011;63678;47.994;7.854;2023-11-19T07:25:04;2.70;;;1.00;;
2452;SDS011;63678;47.994;7.854;2023-11-19T07:27:36;2.97;;;1.17;;
2452;SDS011;63678;47.994;7.854;2023-11-19T07:30:10;3.67;;;1.30;;
2452;SDS011;63678;47.994;7.854;2023-11-19T07:32:42;3.10;;;1.20;;
2452;SDS011;63678;47.994;7.854;2023-11-19T07:35:14;2.87;;;1.10;;
2452;SDS011;63678;47.994;7.854;2023-11-19T07:37:50;2.92;;;1.20;;
2452;SDS011;63678;47.994;7.854;2023-11-19T07:40:23;2.83;;;1.20;;
2452;SDS011;63678;47.994;7.854;2023-11-19T07:42:58;2.88;;;1.20;;
2452;SDS011;63678;47.994;7.854;2023-11-19T07:45:31;5.00;;;1.90;;
2452;SDS011;63678;47.994;7.854;2023-11-19T07:48:03;2.97;;;1.20;;
2452;SDS011;63678;47.994;7.854;2023-11-19T07:50:38;6.15;;;1.30;;
2452;SDS011;63678;47.994;7.854;2023-11-19T07:53:13;3.10;;;1.20;;
2452;SDS011;63678;47.994;7.854;2023-11-19T07:55:46;3.00;;;1.13;;
2452;SDS011;63678;47.994;7.854;2023-11-19T07:58:18;3.20;;;1.48;;
2452;SDS011;63678;47.994;7.854;2023-11-19T08:00:51;3.83;;;1.43;;
2452;SDS011;63678;47.994;7.854;2023-11-19T08:03:23;3.53;;;1.55;;
2452;SDS011;63678;47.994;7.854;2023-11-19T08:05:56;2.80;;;1.10;;
2452;SDS011;63678;47.994;7.854;2023-11-19T08:08:28;4.18;;;1.15;;
2452;SDS011;63678;47.994;7.854;2023-11-19T08:11:01;3.67;;;1.15;;
2452;SDS011;63678;47.994;7.854;2023-11-19T08:13:34;2.83;;;1.20;;
2452;SDS011;63678;47.994;7.854;2023-11-19T08:16:06;3.10;;;1.25;;
2452;SDS011;63678;47.994;7.854;2023-11-19T08:18:41;3.83;;;1.50;;
2452;SDS011;63678;47.994;7.854;2023-11-19T08:21:15;3.67;;;1.30;;
2452;SDS011;63678;47.994;7.854;2023-11-19T08:23:47;3.15;;;1.20;;
2452;SDS011;63678;47.994;7.854;2023-11-19T08:26:19;3.20;;;1.23;;
2452;SDS011;63678;47.994;7.854;2023-11-19T08:28:52;3.45;;;1.60;;
2452;SDS011;63678;47.994;7.854;2023-11-19T08:31:25;3.00;;;1.27;;
2452;SDS011;63678;47.994;7.854;2023-11-19T08:33:57;3.50;;;1.40;;
2452;SDS011;63678;47.994;7.854;2023-11-19T08:36:30;3.00;;;1.33;;
2452;SDS011;63678;47.994;7.854;2023-11-19T08:39:03;3.67;;;1.40;;
2452;SDS011;63678;47.994;7.854;2023-11-19T08:41:35;3.50;;;1.30;;
2452;SDS011;63678;47.994;7.854;2023-11-19T08:44:09;3.00;;;1.30;;
2452;SDS011;63678;47.994;7.854;2023-11-19T08:46:51;3.80;;;1.70;;
2452;SDS011;63678;47.994;7.854;2023-11-19T08:49:23;3.08;;;1.50;;
2452;SDS011;63678;47.994;7.854;2023-11-19T08:51:55;3.47;;;1.50;;
2452;SDS011;63678;47.994;7.854;2023-11-19T08:54:28;3.83;;;1.33;;
2452;SDS011;63678;47.994;7.854;2023-11-19T08:57:00;4.40;;;1.80;;
2452;SDS011;63678;47.994;7.854;2023-11-19T08:59:34;3.63;;;1.20;;
2452;SDS011;63678;47.994;7.854;2023-11-19T09:02:09;3.40;;;1.27;;
2452;SDS011;63678;47.994;7.854;2023-11-19T09:04:42;6.00;;;1.50;;
2452;SDS011;63678;47.994;7.854;2023-11-19T09:07:14;3.00;;;1.30;;
2452;SDS011;63678;47.994;7.854;2023-11-19T09:09:47;3.53;;;1.48;;
2452;SDS011;63678;47.994;7.854;2023-11-19T09:12:19;4.07;;;1.30;;
2452;SDS011;63678;47.994;7.854;2023-11-19T09:14:51;3.30;;;1.20;;
2452;SDS011;63678;47.994;7.854;2023-11-19T09:17:24;5.63;;;1.70;;
2452;SDS011;63678;47.994;7.854;2023-11-19T09:19:56;3.63;;;1.15;;
2452;SDS011;63678;47.994;7.854;2023-11-19T09:22:29;4.13;;;1.52;;
2452;SDS011;63678;47.994;7.854;2023-11-19T09:25:01;3.95;;;1.40;;
2452;SDS011;63678;47.994;7.854;2023-11-19T09:27:33;4.40;;;1.30;;
2452;SDS011;63678;47.994;7.854;2023-11-19T09:30:06;3.27;;;1.60;;
2452;SDS011;63678;47.994;7.854;2023-11-19T09:32:39;3.80;;;1.60;;
2452;SDS011;63678;47.994;7.854;2023-11-19T09:35:12;3.20;;;1.33;;
2452;SDS011;63678;47.994;7.854;2023-11-19T09:37:46;4.10;;;1.70;;
2452;SDS011;63678;47.994;7.854;2023-11-19T09:40:18;4.18;;;1.63;;
2452;SDS011;63678;47.994;7.854;2023-11-19T09:42:51;4.10;;;1.40;;
2452;SDS011;63678;47.994;7.854;2023-11-19T09:45:25;4.15;;;1.80;;
2452;SDS011;63678;47.994;7.854;2023-11-19T09:47:59;4.75;;;1.90;;
2452;SDS011;63678;47.994;7.854;2023-11-19T09:50:34;4.80;;;1.70;;
2452;SDS011;63678;47.994;7.854;2023-11-19T09:53:06;4.13;;;1.90;;
2452;SDS011;63678;47.994;7.854;2023-11-19T09:55:39;4.73;;;1.50;;
2452;SDS011;63678;47.994;7.854;2023-11-19T09:58:13;3.25;;;1.40;;
2452;SDS011;63678;47.994;7.854;2023-11-19T10:00:47;4.15;;;1.83;;
2452;SDS011;63678;47.994;7.854;2023-11-19T10:03:41;3.67;;;1.50;;
2452;SDS011;63678;47.994;7.854;2023-11-19T10:06:15;3.70;;;1.33;;
2452;SDS011;63678;47.994;7.854;2023-11-19T10:08:50;3.63;;;1.53;;
2452;SDS011;63678;47.994;7.854;2023-11-19T10:11:23;3.35;;;1.40;;
2452;SDS011;63678;47.994;7.854;2023-11-19T10:13:56;3.20;;;1.48;;
2452;SDS011;63678;47.994;7.854;2023-11-19T10:16:29;3.40;;;1.45;;
2452;SDS011;63678;47.994;7.854;2023-11-19T10:19:03;3.38;;;1.50;;
2452;SDS011;63678;47.994;7.854;2023-11-19T10:21:35;4.20;;;1.57;;
2452;SDS011;63678;47.994;7.854;2023-11-19T10:24:07;5.10;;;1.48;;
2452;SDS011;63678;47.994;7.854;2023-11-19T10:26:40;3.53;;;1.90;;
2452;SDS011;63678;47.994;7.854;2023-11-19T10:29:14;3.10;;;1.40;;
2452;SDS011;63678;47.994;7.854;2023-11-19T10:31:55;3.22;;;1.23;;
2452;SDS011;63678;47.994;7.854;2023-11-19T10:34:49;3.47;;;1.30;;
2452;SDS011;63678;47.994;7.854;2023-11-19T10:37:28;3.63;;;1.67;;
2452;SDS011;63678;47.994;7.854;2023-11-19T10:40:03;3.70;;;2.03;;
2452;SDS011;63678;47.994;7.854;2023-11-19T10:42:42;4.45;;;1.38;;
2452;SDS011;63678;47.994;7.854;2023-11-19T10:45:21;3.00;;;1.25;;
2452;SDS011;63678;47.994;7.854;2023-11-19T10:47:57;3.23;;;1.63;;
2452;SDS011;63678;47.994;7.854;2023-11-19T10:50:31;3.58;;;1.52;;
2452;SDS011;63678;47.994;7.854;2023-11-19T10:53:03;3.80;;;1.60;;
2452;SDS011;63678;47.994;7.854;2023-11-19T10:55:37;3.95;;;1.58;;
2452;SDS011;63678;47.994;7.854;2023-11-19T10:58:11;4.10;;;1.30;;
2452;SDS011;63678;47.994;7.854;2023-11-19T11:00:52;3.80;;;1.60;;
2452;SDS011;63678;47.994;7.854;2023-11-19T11:03:29;3.30;;;1.50;;
2452;SDS011;63678;47.994;7.854;2023-11-19T11:06:11;4.38;;;1.80;;
2452;SDS011;63678;47.994;7.854;2023-11-19T11:08:46;4.15;;;1.63;;
2452;SDS011;63678;47.994;7.854;2023-11-19T11:11:19;3.33;;;1.30;;
2452;SDS011;63678;47.994;7.854;2023-11-19T11:13:57;3.47;;;1.20;;
2452;SDS011;63678;47.994;7.854;2023-11-19T11:16:33;3.03;;;1.40;;
2452;SDS011;63678;47.994;7.854;2023-11-19T11:19:07;3.90;;;1.20;;
2452;SDS011;63678;47.994;7.854;2023-11-19T11:21:42;4.38;;;1.15;;
2452;SDS011;63678;47.994;7.854;2023-11-19T11:27:26;2.87;;;1.30;;
2452;SDS011;63678;47.994;7.854;2023-11-19T11:32:58;3.75;;;1.83;;
2452;SDS011;63678;47.994;7.854;2023-11-19T11:36:11;4.47;;;1.23;;
2452;SDS011;63678;47.994;7.854;2023-11-19T11:38:51;3.55;;;1.50;;
2452;SDS011;63678;47.994;7.854;2023-11-19T11:41:24;4.20;;;1.33;;
2452;SDS011;63678;47.994;7.854;2023-11-19T11:44:01;3.50;;;1.33;;
2452;SDS011;63678;47.994;7.854;2023-11-19T11:49:09;4.38;;;1.88;;
2452;SDS011;63678;47.994;7.854;2023-11-19T11:57:09;3.72;;;1.40;;
2452;SDS011;63678;47.994;7.854;2023-11-19T11:59:46;4.05;;;1.73;;
2452;SDS011;63678;47.994;7.854;2023-11-19T12:02:22;3.63;;;1.80;;
2452;SDS011;63678;47.994;7.854;2023-11-19T12:04:54;6.65;;;2.03;;
2452;SDS011;63678;47.994;7.854;2023-11-19T12:07:26;5.60;;;1.90;;
2452;SDS011;63678;47.994;7.854;2023-11-19T12:10:06;7.05;;;2.00;;
2452;SDS011;63678;47.994;7.854;2023-11-19T12:12:43;3.30;;;1.45;;
2452;SDS011;63678;47.994;7.854;2023-11-19T12:15:15;3.97;;;1.58;;
2452;SDS011;63678;47.994;7.854;2023-11-19T12:17:51;3.80;;;1.45;;
2452;SDS011;63678;47.994;7.854;2023-11-19T12:20:24;3.30;;;1.40;;
2452;SDS011;63678;47.994;7.854;2023-11-19T12:23:02;3.85;;;1.77;;
2452;SDS011;63678;47.994;7.854;2023-11-19T12:25:37;3.92;;;1.70;;
2452;SDS011;63678;47.994;7.854;2023-11-19T12:28:13;4.72;;;1.40;;
2452;SDS011;63678;47.994;7.854;2023-11-19T12:30:50;4.20;;;1.50;;
2452;SDS011;63678;47.994;7.854;2023-11-19T12:33:23;4.07;;;1.80;;
2452;SDS011;63678;47.994;7.854;2023-11-19T12:35:55;4.90;;;1.70;;
2452;SDS011;63678;47.994;7.854;2023-11-19T12:38:28;4.05;;;1.70;;
2452;SDS011;63678;47.994;7.854;2023-11-19T12:41:04;4.30;;;1.60;;
2452;SDS011;63678;47.994;7.854;2023-11-19T12:43:37;6.30;;;2.25;;
2452;SDS011;63678;47.994;7.854;2023-11-19T12:46:23;3.80;;;1.80;;
2452;SDS011;63678;47.994;7.854;2023-11-19T12:48:55;5.13;;;1.40;;
2452;SDS011;63678;47.994;7.854;2023-11-19T12:51:31;3.53;;;1.80;;
2452;SDS011;63678;47.994;7.854;2023-11-19T12:54:05;3.60;;;1.70;;
2452;SDS011;63678;47.994;7.854;2023-11-19T12:56:38;5.22;;;1.95;;
2452;SDS011;63678;47.994;7.854;2023-11-19T12:59:12;6.07;;;1.80;;
2452;SDS011;63678;47.994;7.854;2023-11-19T13:01:55;5.93;;;1.70;;
2452;SDS011;63678;47.994;7.854;2023-11-19T13:04:30;3.78;;;1.95;;
2452;SDS011;63678;47.994;7.854;2023-11-19T13:07:03;3.72;;;1.80;;
2452;SDS011;63678;47.994;7.854;2023-11-19T13:09:37;4.35;;;1.80;;
2452;SDS011;63678;47.994;7.854;2023-11-19T13:12:15;3.47;;;1.53;;
2452;SDS011;63678;47.994;7.854;2023-11-19T13:14:48;3.95;;;1.90;;
2452;SDS011;63678;47.994;7.854;2023-11-19T13:17:21;5.55;;;2.05;;
2452;SDS011;63678;47.994;7.854;2023-11-19T13:19:54;4.75;;;1.83;;
2452;SDS011;63678;47.994;7.854;2023-11-19T13:22:28;3.85;;;1.90;;
2452;SDS011;63678;47.994;7.854;2023-11-19T13:25:01;8.40;;;1.80;;
2452;SDS011;63678;47.994;7.854;2023-11-19T13:27:35;3.90;;;1.48;;
2452;SDS011;63678;47.994;7.854;2023-11-19T13:30:08;4.28;;;1.77;;
2452;SDS011;63678;47.994;7.854;2023-11-19T13:32:58;6.18;;;1.73;;
2452;SDS011;63678;47.994;7.854;2023-11-19T13:35:30;5.68;;;1.95;;
2452;SDS011;63678;47.994;7.854;2023-11-19T13:38:02;5.20;;;1.60;;
2452;SDS011;63678;47.994;7.854;2023-11-19T13:40:34;4.60;;;2.20;;
2452;SDS011;63678;47.994;7.854;2023-11-19T13:43:07;4.43;;;1.73;;
2452;SDS011;63678;47.994;7.854;2023-11-19T13:45:40;4.57;;;1.85;;
2452;SDS011;63678;47.994;7.854;2023-11-19T13:48:12;4.15;;;1.92;;
2452;SDS011;63678;47.994;7.854;2023-11-19T13:50:45;5.23;;;1.90;;
2452;SDS011;63678;47.994;7.854;2023-11-19T13:53:18;3.75;;;1.77;;
2452;SDS011;63678;47.994;7.854;2023-11-19T13:55:50;4.72;;;1.90;;
2452;SDS011;63678;47.994;7.854;2023-11-19T13:58:22;3.65;;;1.52;;
2452;SDS011;63678;47.994;7.854;2023-11-19T14:00:55;5.10;;;2.05;;
2452;SDS011;63678;47.994;7.854;2023-11-19T14:03:29;4.37;;;1.30;;
2452;SDS011;63678;47.994;7.854;2023-11-19T14:06:02;4.32;;;1.60;;
2452;SDS011;63678;47.994;7.854;2023-11-19T14:08:35;3.83;;;1.77;;
2452;SDS011;63678;47.994;7.854;2023-11-19T14:11:07;4.93;;;1.55;;
2452;SDS011;63678;47.994;7.854;2023-11-19T14:13:40;4.63;;;1.65;;
2452;SDS011;63678;47.994;7.854;2023-11-19T14:16:12;3.80;;;1.53;;
2452;SDS011;63678;47.994;7.854;2023-11-19T14:18:44;5.18;;;1.70;;
2452;SDS011;63678;47.994;7.854;2023-11-19T14:21:18;4.28;;;1.70;;
2452;SDS011;63678;47.994;7.854;2023-11-19T14:23:50;4.80;;;2.05;;
2452;SDS011;63678;47.994;7.854;2023-11-19T14:26:23;6.00;;;1.70;;
2452;SDS011;63678;47.994;7.854;2023-11-19T14:28:56;4.50;;;1.50;;
2452;SDS011;63678;47.994;7.854;2023-11-19T14:31:28;5.07;;;1.63;;
2452;SDS011;63678;47.994;7.854;2023-11-19T14:34:01;4.50;;;1.70;;
2452;SDS011;63678;47.994;7.854;2023-11-19T14:36:33;4.45;;;1.70;;
2452;SDS011;63678;47.994;7.854;2023-11-19T14:39:06;5.88;;;1.67;;
2452;SDS011;63678;47.994;7.854;2023-11-19T14:41:39;4.53;;;1.80;;
2452;SDS011;63678;47.994;7.854;2023-11-19T14:44:11;3.67;;;1.80;;
2452;SDS011;63678;47.994;7.854;2023-11-19T14:46:44;6.07;;;1.80;;
2452;SDS011;63678;47.994;7.854;2023-11-19T14:49:17;4.20;;;1.80;;
2452;SDS011;63678;47.994;7.854;2023-11-19T14:51:50;4.55;;;2.17;;
2452;SDS011;63678;47.994;7.854;2023-11-19T14:54:22;3.67;;;1.60;;
2452;SDS011;63678;47.994;7.854;2023-11-19T14:56:56;4.55;;;2.05;;
2452;SDS011;63678;47.994;7.854;2023-11-19T14:59:33;4.85;;;1.85;;
2452;SDS011;63678;47.994;7.854;2023-11-19T15:02:08;4.47;;;1.90;;
2452;SDS011;63678;47.994;7.854;2023-11-19T15:04:40;4.90;;;1.80;;
2452;SDS011;63678;47.994;7.854;2023-11-19T15:07:16;4.80;;;1.90;;
2452;SDS011;63678;47.994;7.854;2023-11-19T15:09:48;6.22;;;2.20;;
2452;SDS011;63678;47.994;7.854;2023-11-19T15:12:21;5.38;;;2.03;;
2452;SDS011;63678;47.994;7.854;2023-11-19T15:14:54;4.43;;;2.20;;
2452;SDS011;63678;47.994;7.854;2023-11-19T15:17:27;4.78;;;2.10;;
2452;SDS011;63678;47.994;7.854;2023-11-19T15:19:59;5.00;;;2.00;;
2452;SDS011;63678;47.994;7.854;2023-11-19T15:22:32;5.50;;;1.65;;
2452;SDS011;63678;47.994;7.854;2023-11-19T15:25:05;5.30;;;1.90;;
2452;SDS011;63678;47.994;7.854;2023-11-19T15:27:41;3.90;;;2.13;;
2452;SDS011;63678;47.994;7.854;2023-11-19T15:30:14;4.45;;;1.90;;
2452;SDS011;63678;47.994;7.854;2023-11-19T15:32:47;6.00;;;1.90;;
2452;SDS011;63678;47.994;7.854;2023-11-19T15:35:20;4.78;;;2.05;;
2452;SDS011;63678;47.994;7.854;2023-11-19T15:37:52;3.85;;;1.92;;
2452;SDS011;63678;47.994;7.854;2023-11-19T15:40:25;5.88;;;1.70;;
2452;SDS011;63678;47.994;7.854;2023-11-19T15:42:58;3.72;;;1.60;;
2452;SDS011;63678;47.994;7.854;2023-11-19T15:45:31;4.33;;;1.70;;
2452;SDS011;63678;47.994;7.854;2023-11-19T15:48:09;4.32;;;1.80;;
2452;SDS011;63678;47.994;7.854;2023-11-19T15:50:45;4.00;;;2.17;;
2452;SDS011;63678;47.994;7.854;2023-11-19T15:53:18;4.10;;;1.80;;